Time;durP1;ratioP1;P1;durP2;ratioP2;P2;SDS_P1;SDS_P2;PMS_P1;PMS_P2;Temp;Humidity;BMP_temperature;BMP_pressure;BME280_temperature;BME280_humidity;BME280_pressure;Samples;Min_cycle;Max_cycle;Signal;HPM_P1;HPM_P2
2024/03/07 00:00:14;;;;;;;29.15;13.88;;;8.40;99.90;;;;;;4986382;28;20174;-81
2024/03/07 00:02:41;;;;;;;22.95;13.63;;;8.50;99.90;;;;;;4983931;28;20026;-82
2024/03/07 00:05:08;;;;;;;29.25;14.60;;;;;;;;;;4986898;28;20035;-85
2024/03/07 00:07:37;;;;;;;32.42;15.10;;;;;;;;;;4985692;28;20047;-81
2024/03/07 00:10:04;;;;;;;26.70;14.38;;;8.30;99.90;;;;;;4997306;28;20026;-83
2024/03/07 00:12:31;;;;;;;26.88;13.90;;;;;;;;;;4992882;28;20061;-82
2024/03/07 00:14:57;;;;;;;29.90;16.27;;;;;;;;;;4982816;28;21317;-83
2024/03/07 00:17:24;;;;;;;28.42;14.40;;;;;;;;;;4980295;28;20472;-81
2024/03/07 00:19:50;;;;;;;29.27;14.48;;;;;;;;;;4996673;28;20039;-82
2024/03/07 00:22:16;;;;;;;30.65;15.57;;;;;;;;;;4984763;28;20034;-82
2024/03/07 00:24:42;;;;;;;29.80;15.05;;;9.50;99.90;;;;;;4983460;28;20070;-82
2024/03/07 00:27:08;;;;;;;31.30;16.00;;;;;;;;;;4986245;28;20400;-82
2024/03/07 00:29:37;;;;;;;30.50;15.38;;;;;;;;;;4985534;28;20039;-82
2024/03/07 00:32:04;;;;;;;31.52;15.07;;;8.30;99.90;;;;;;4984920;28;20078;-85
2024/03/07 00:34:30;;;;;;;27.02;14.45;;;;;;;;;;4985130;28;20085;-83
2024/03/07 00:36:57;;;;;;;29.00;15.57;;;8.30;99.90;;;;;;4986918;28;20050;-82
2024/03/07 00:39:24;;;;;;;29.42;15.48;;;;;;;;;;5001161;28;20094;-84
2024/03/07 00:41:50;;;;;;;29.38;16.15;;;;;;;;;;5003843;28;20038;-85
2024/03/07 00:44:16;;;;;;;31.58;16.30;;;;;;;;;;5007899;28;20050;-84
2024/03/07 00:46:42;;;;;;;31.65;17.38;;;8.30;99.90;;;;;;4991109;28;20407;-85
2024/03/07 00:49:08;;;;;;;29.52;16.35;;;;;;;;;;4988761;28;20034;-82
2024/03/07 00:51:34;;;;;;;32.78;16.92;;;;;;;;;;5003252;28;20043;-84
2024/03/07 00:54:00;;;;;;;36.42;17.33;;;8.20;99.90;;;;;;4985155;28;20052;-84
2024/03/07 00:56:25;;;;;;;34.05;17.38;;;8.20;99.90;;;;;;4986233;28;20050;-85
2024/03/07 00:58:52;;;;;;;32.70;17.85;;;;;;;;;;4993504;28;20241;-84
2024/03/07 01:01:21;;;;;;;35.25;18.05;;;;;;;;;;5002691;28;20046;-83
2024/03/07 01:03:47;;;;;;;40.58;20.13;;;8.10;99.90;;;;;;5008335;28;20046;-88
2024/03/07 01:34:58;;;;;;;43.53;21.40;;;7.70;99.90;;;;;;4991340;28;20027;-86
2024/03/07 01:37:32;;;;;;;42.80;22.40;;;7.80;99.90;;;;;;4995478;28;20082;-87
2024/03/07 01:39:58;;;;;;;43.80;21.55;;;7.80;99.90;;;;;;4996316;28;20011;-85
2024/03/07 01:42:24;;;;;;;40.47;21.88;;;7.70;99.90;;;;;;5011283;28;20031;-86
2024/03/07 01:44:51;;;;;;;39.88;22.45;;;9.10;99.90;;;;;;5011373;28;20090;-86
2024/03/07 01:47:17;;;;;;;41.42;22.13;;;8.60;99.90;;;;;;4995650;28;20034;-81
2024/03/07 01:49:43;;;;;;;44.63;22.60;;;7.70;99.90;;;;;;5011955;28;20019;-84
2024/03/07 01:52:10;;;;;;;41.75;22.02;;;7.60;99.90;;;;;;4995485;28;20078;-86
2024/03/07 01:54:36;;;;;;;46.00;22.73;;;8.10;99.90;;;;;;4997147;28;20038;-86
2024/03/07 01:57:04;;;;;;;43.47;23.35;;;7.70;99.90;;;;;;4996805;28;20022;-86
2024/03/07 01:59:30;;;;;;;42.55;23.90;;;7.60;99.90;;;;;;4996548;28;20022;-87
2024/03/07 02:02:02;;;;;;;45.70;23.30;;;7.70;99.90;;;;;;4995394;28;20034;-84
2024/03/07 02:04:27;;;;;;;41.88;23.30;;;7.40;99.90;;;;;;4993829;28;20406;-82
2024/03/07 02:06:55;;;;;;;46.55;23.30;;;7.40;99.90;;;;;;4992698;28;20030;-84
2024/03/07 02:09:20;;;;;;;42.95;22.92;;;7.60;99.90;;;;;;5008909;28;20058;-85
2024/03/07 02:11:49;;;;;;;39.90;22.92;;;7.40;99.90;;;;;;4994455;28;20027;-84
2024/03/07 02:14:16;;;;;;;44.13;23.35;;;7.40;99.90;;;;;;4994269;28;20089;-85
2024/03/07 02:16:42;;;;;;;44.30;22.33;;;;;;;;;;4974939;28;20013;-87
2024/03/07 02:19:13;;;;;;;39.47;21.85;;;7.50;99.90;;;;;;4974941;28;20078;-85
2024/03/07 02:21:39;;;;;;;41.45;22.58;;;7.50;99.90;;;;;;4994214;28;20046;-84
2024/03/07 02:24:05;;;;;;;42.10;21.67;;;9.10;99.90;;;;;;4993231;28;20023;-83
2024/03/07 02:26:30;;;;;;;42.40;20.65;;;7.50;99.90;;;;;;4999533;28;20094;-84
2024/03/07 02:28:56;;;;;;;41.75;21.38;;;7.50;99.90;;;;;;4993890;28;20041;-85
2024/03/07 02:31:34;;;;;;;44.10;23.42;;;8.30;99.90;;;;;;4993999;28;20031;-83
2024/03/07 02:34:01;;;;;;;39.75;21.05;;;7.50;99.90;;;;;;4974304;28;20036;-86
2024/03/07 02:36:27;;;;;;;38.47;21.95;;;7.40;99.90;;;;;;4974183;29;20019;-86
2024/03/07 02:38:53;;;;;;;44.25;23.23;;;7.60;99.90;;;;;;4974214;28;20023;-86
2024/03/07 02:41:18;;;;;;;43.30;21.65;;;7.50;99.90;;;;;;4976704;28;20027;-86
2024/03/07 02:43:44;;;;;;;45.20;23.75;;;7.40;99.90;;;;;;4993430;28;20091;-88
2024/03/07 02:46:11;;;;;;;43.53;24.17;;;;;;;;;;4995991;28;20011;-88
2024/03/07 02:48:38;;;;;;;38.67;21.05;;;7.30;99.90;;;;;;5013776;28;20023;-87
2024/03/07 02:51:07;;;;;;;40.90;21.73;;;7.30;99.90;;;;;;4990874;28;20014;-85
2024/03/07 02:53:33;;;;;;;43.63;21.80;;;7.70;99.90;;;;;;4992728;28;20070;-85
2024/03/07 02:55:59;;;;;;;41.55;22.00;;;8.50;99.90;;;;;;4992882;28;20023;-85
2024/03/07 02:58:24;;;;;;;43.10;22.17;;;7.30;99.90;;;;;;4994036;28;20031;-85
2024/03/07 03:01:00;;;;;;;43.80;23.25;;;8.30;99.90;;;;;;4994570;28;20125;-85
2024/03/07 03:03:26;;;;;;;47.90;24.65;;;7.30;99.90;;;;;;4996184;28;20090;-85
2024/03/07 03:05:52;;;;;;;49.17;25.80;;;7.10;99.90;;;;;;4997579;28;20095;-85
2024/03/07 03:08:18;;;;;;;51.58;26.75;;;7.10;99.90;;;;;;4998802;28;20029;-84
2024/03/07 03:10:44;;;;;;;49.13;26.27;;;7.20;99.90;;;;;;4993166;28;20030;-86
2024/03/07 03:13:09;;;;;;;46.45;25.38;;;7.10;99.90;;;;;;5011858;28;20074;-86
2024/03/07 03:15:37;;;;;;;50.80;26.83;;;8.80;99.90;;;;;;5010823;28;20015;-87
2024/03/07 03:18:03;;;;;;;52.95;27.63;;;7.20;99.90;;;;;;4998526;28;20027;-86
2024/03/07 03:20:38;;;;;;;52.20;27.17;;;7.00;99.90;;;;;;5030698;28;20046;-83
2024/03/07 03:23:05;;;;;;;53.22;27.15;;;7.00;99.90;;;;;;4996860;28;20047;-83
2024/03/07 03:25:34;;;;;;;58.78;28.67;;;7.90;99.90;;;;;;4996849;28;20015;-87
2024/03/07 03:28:01;;;;;;;47.17;27.17;;;8.90;99.90;;;;;;4995944;28;20035;-84
2024/03/07 03:30:27;;;;;;;54.00;27.02;;;6.90;99.90;;;;;;4996319;28;20019;-85
2024/03/07 03:32:52;;;;;;;52.50;26.77;;;7.40;99.90;;;;;;4996864;28;20027;-87
2024/03/07 03:35:19;;;;;;;55.40;28.35;;;6.90;99.90;;;;;;4997188;28;20019;-84
2024/03/07 03:37:45;;;;;;;56.05;29.02;;;7.10;99.90;;;;;;4999899;28;20075;-85
2024/03/07 03:40:14;;;;;;;52.17;27.08;;;8.80;99.90;;;;;;5017131;28;20031;-86
2024/03/07 03:42:41;;;;;;;51.75;26.63;;;6.90;99.90;;;;;;5017716;28;20023;-81
2024/03/07 03:45:09;;;;;;;45.13;23.67;;;9.10;99.90;;;;;;5018055;28;20486;-87
2024/03/07 03:47:38;;;;;;;44.33;23.05;;;6.80;99.90;;;;;;5001419;28;20091;-88
2024/03/07 03:50:05;;;;;;;44.55;24.02;;;6.80;99.90;;;;;;4998486;28;20019;-87
2024/03/07 03:52:37;;;;;;;48.25;22.60;;;6.90;99.90;;;;;;4998648;28;20090;-87
2024/03/07 03:55:07;;;;;;;46.30;21.98;;;7.50;99.90;;;;;;4998714;28;20218;-87
2024/03/07 03:57:33;;;;;;;43.15;22.20;;;6.90;99.90;;;;;;4997995;28;20017;-83
2024/03/07 03:59:59;;;;;;;43.08;22.25;;;7.00;99.90;;;;;;4994979;28;20070;-84
2024/03/07 04:02:25;;;;;;;44.40;22.92;;;7.00;99.90;;;;;;4995276;28;20219;-81
2024/03/07 04:04:52;;;;;;;39.60;23.45;;;7.20;99.90;;;;;;4995899;28;20038;-85
2024/03/07 04:07:18;;;;;;;42.15;23.08;;;7.60;99.90;;;;;;4996093;28;20022;-84
2024/03/07 04:09:48;;;;;;;41.47;22.63;;;7.20;99.90;;;;;;4994871;28;20027;-86
2024/03/07 04:12:15;;;;;;;45.45;24.23;;;7.10;99.90;;;;;;4996388;28;20129;-81
2024/03/07 04:14:41;;;;;;;46.47;24.42;;;7.20;99.90;;;;;;4994832;28;20046;-84
2024/03/07 04:17:07;;;;;;;47.97;24.38;;;6.80;99.90;;;;;;4995469;28;20034;-86
2024/03/07 04:19:35;;;;;;;43.40;22.25;;;7.90;99.90;;;;;;4995493;28;20026;-81
2024/03/07 04:22:04;;;;;;;44.55;22.25;;;6.80;99.90;;;;;;4987530;28;20034;-87
2024/03/07 04:24:32;;;;;;;46.88;23.02;;;8.10;99.90;;;;;;4976204;28;20031;-85
2024/03/07 04:27:00;;;;;;;45.15;23.58;;;6.80;99.90;;;;;;4990395;28;20271;-86
2024/03/07 04:29:26;;;;;;;43.08;22.98;;;8.20;99.90;;;;;;4996947;28;20034;-83
2024/03/07 04:31:51;;;;;;;47.75;23.02;;;6.60;99.90;;;;;;5013514;28;20094;-87
2024/03/07 04:34:17;;;;;;;41.95;22.67;;;7.90;99.90;;;;;;5008309;28;20042;-85
2024/03/07 04:36:43;;;;;;;45.97;23.60;;;8.30;99.90;;;;;;5001831;28;20063;-86
2024/03/07 04:39:22;;;;;;;46.17;24.27;;;6.70;99.90;;;;;;4994255;28;20083;-86
2024/03/07 04:41:48;;;;;;;44.33;23.38;;;6.70;99.90;;;;;;4993861;28;20031;-85
2024/03/07 04:44:14;;;;;;;43.67;23.98;;;7.20;99.90;;;;;;4994123;28;20027;-87
2024/03/07 04:46:42;;;;;;;48.95;24.80;;;6.60;99.90;;;;;;4993946;28;20062;-82
2024/03/07 04:49:09;;;;;;;43.47;24.60;;;6.60;99.90;;;;;;4993648;28;20011;-81
2024/03/07 04:51:34;;;;;;;51.33;26.25;;;6.70;99.90;;;;;;4993367;28;20030;-82
2024/03/07 04:54:00;;;;;;;50.00;24.80;;;6.90;99.90;;;;;;5005830;28;20054;-84
2024/03/07 04:56:25;;;;;;;52.40;27.30;;;8.20;99.90;;;;;;5006834;28;20023;-87
2024/03/07 04:58:52;;;;;;;48.08;25.45;;;6.50;99.90;;;;;;5011621;28;20035;-86
2024/03/07 05:01:18;;;;;;;45.13;24.55;;;7.10;99.90;;;;;;4994714;28;20023;-82
2024/03/07 05:03:43;;;;;;;46.25;25.13;;;6.60;99.90;;;;;;4993748;28;20054;-87
2024/03/07 05:06:09;;;;;;;47.08;25.50;;;6.60;99.90;;;;;;4990359;28;20027;-81
2024/03/07 05:08:35;;;;;;;47.35;26.23;;;6.60;99.90;;;;;;5000793;28;20057;-86
2024/03/07 05:11:00;;;;;;;47.42;25.13;;;6.70;99.90;;;;;;5007330;28;20093;-84
2024/03/07 05:13:26;;;;;;;48.65;25.85;;;6.80;99.90;;;;;;5007468;28;20015;-87
2024/03/07 05:15:52;;;;;;;50.80;26.02;;;7.20;99.90;;;;;;5002662;28;20024;-85
2024/03/07 05:18:18;;;;;;;49.55;25.83;;;6.60;99.90;;;;;;5014859;28;20022;-84
2024/03/07 05:20:44;;;;;;;46.95;25.10;;;8.20;99.90;;;;;;5008845;28;20031;-86
2024/03/07 05:23:10;;;;;;;47.45;25.60;;;7.10;99.90;;;;;;4993782;28;20027;-85
2024/03/07 05:25:36;;;;;;;49.15;25.00;;;6.50;99.90;;;;;;4994889;28;20030;-85
2024/03/07 05:28:02;;;;;;;45.08;24.40;;;8.40;99.90;;;;;;5010358;28;20070;-84
2024/03/07 05:30:29;;;;;;;47.55;25.00;;;6.40;99.90;;;;;;4994058;28;20123;-84
2024/03/07 05:32:55;;;;;;;49.85;25.67;;;6.40;99.90;;;;;;4993489;28;20041;-85
2024/03/07 05:35:21;;;;;;;46.95;25.10;;;6.40;99.90;;;;;;4993639;28;20027;-86
2024/03/07 05:37:47;;;;;;;46.42;25.65;;;6.40;99.90;;;;;;4993443;28;20021;-84
2024/03/07 05:40:13;;;;;;;53.33;28.58;;;7.80;99.90;;;;;;4992675;28;20037;-85
2024/03/07 05:42:39;;;;;;;46.67;25.20;;;6.30;99.90;;;;;;4993448;28;20031;-87
2024/03/07 05:45:08;;;;;;;46.22;24.88;;;8.10;99.90;;;;;;4994715;28;20027;-85
2024/03/07 05:47:34;;;;;;;46.47;24.80;;;6.30;99.90;;;;;;4993909;28;20023;-89
2024/03/07 05:50:00;;;;;;;46.42;25.52;;;;;;;;;;5007232;28;20486;-85
2024/03/07 05:52:25;;;;;;;46.42;24.67;;;6.20;99.90;;;;;;4991079;28;20030;-85
2024/03/07 05:54:51;;;;;;;47.60;25.33;;;6.20;99.90;;;;;;5009396;28;20090;-85
2024/03/07 05:57:17;;;;;;;50.03;25.65;;;6.10;99.90;;;;;;4992295;28;20107;-84
2024/03/07 05:59:42;;;;;;;56.63;27.67;;;6.20;99.90;;;;;;4991856;28;20031;-84
2024/03/07 06:02:08;;;;;;;53.33;25.60;;;6.20;99.90;;;;;;4992425;28;20121;-87
2024/03/07 06:04:34;;;;;;;49.72;25.30;;;6.10;99.90;;;;;;5008433;28;20034;-88
2024/03/07 06:06:59;;;;;;;52.75;27.20;;;7.50;99.90;;;;;;4992095;28;20035;-85
2024/03/07 06:09:26;;;;;;;51.28;25.38;;;6.80;99.90;;;;;;4991153;28;20019;-86
2024/03/07 06:11:52;;;;;;;51.78;26.95;;;6.30;99.90;;;;;;5008113;28;20030;-87
2024/03/07 06:14:19;;;;;;;56.45;27.92;;;6.50;99.90;;;;;;4996303;28;20094;-86
2024/03/07 06:16:45;;;;;;;52.40;27.90;;;6.10;99.90;;;;;;5000394;28;20011;-87
2024/03/07 06:19:11;;;;;;;52.88;27.70;;;6.10;99.90;;;;;;4993896;28;20035;-86
2024/03/07 06:21:41;;;;;;;54.88;28.58;;;7.40;99.90;;;;;;4988683;28;20427;-87
2024/03/07 06:24:08;;;;;;;52.67;28.63;;;6.10;99.90;;;;;;4998028;28;20091;-88
2024/03/07 06:26:59;;;;;;;54.35;27.90;;;6.10;99.90;;;;;;4977023;28;20322;-85
2024/03/07 06:29:27;;;;;;;50.55;27.88;;;7.20;99.90;;;;;;4985070;28;20023;-89
2024/03/07 06:31:54;;;;;;;52.60;27.45;;;8.30;99.90;;;;;;4985423;28;20031;-87
2024/03/07 06:34:20;;;;;;;51.72;27.60;;;6.30;99.90;;;;;;4993844;28;20265;-88
2024/03/07 06:36:45;;;;;;;51.35;28.73;;;7.40;99.90;;;;;;4988407;28;20090;-85
2024/03/07 06:39:11;;;;;;;50.88;26.60;;;7.80;99.90;;;;;;5010325;28;20067;-83
2024/03/07 06:41:37;;;;;;;46.58;25.27;;;6.10;99.90;;;;;;4994438;28;20035;-87
2024/03/07 06:44:03;;;;;;;50.38;27.15;;;7.10;99.90;;;;;;5012039;28;20011;-87
2024/03/07 06:46:29;;;;;;;50.45;26.83;;;6.20;99.90;;;;;;4990287;28;20115;-86
2024/03/07 06:48:58;;;;;;;54.33;28.58;;;6.20;99.90;;;;;;5000557;28;20073;-81
2024/03/07 06:51:24;;;;;;;55.85;27.25;;;6.20;99.90;;;;;;4979012;28;20101;-84
2024/03/07 06:53:50;;;;;;;50.50;25.35;;;6.20;99.90;;;;;;4984432;28;20479;-88
2024/03/07 06:56:17;;;;;;;55.58;26.90;;;;;;;;;;4999885;28;20054;-87
2024/03/07 06:58:45;;;;;;;51.53;27.17;;;6.30;99.90;;;;;;4982314;28;20042;-88
2024/03/07 17:58:08;;;;;;;23.38;12.82;;;8.10;99.90;;;;;;4996972;28;20042;-87
2024/03/07 18:00:57;;;;;;;22.38;13.15;;;8.00;99.90;;;;;;4976825;28;20030;-85
2024/03/07 18:03:55;;;;;;;24.13;13.57;;;8.00;99.90;;;;;;4930303;29;20038;-87
2024/03/07 18:06:24;;;;;;;21.80;13.05;;;7.90;99.90;;;;;;4953821;28;20070;-86
2024/03/07 18:08:50;;;;;;;23.92;13.10;;;7.90;99.90;;;;;;4965041;28;20034;-84
2024/03/07 18:11:18;;;;;;;24.85;14.18;;;7.90;99.90;;;;;;4990978;28;20034;-87
2024/03/07 18:13:46;;;;;;;23.23;13.07;;;7.90;99.90;;;;;;4972826;28;20074;-84
2024/03/07 18:16:13;;;;;;;24.00;13.75;;;8.30;99.90;;;;;;4974020;28;20034;-83
2024/03/07 18:18:41;;;;;;;24.58;13.05;;;8.00;99.90;;;;;;4971992;28;20479;-84
2024/03/07 18:21:08;;;;;;;23.35;13.50;;;7.90;99.90;;;;;;4986556;28;20569;-82
2024/03/07 18:23:36;;;;;;;24.15;13.95;;;7.90;99.90;;;;;;4973984;28;20450;-85
2024/03/07 18:26:05;;;;;;;26.33;14.32;;;7.80;99.90;;;;;;4973195;28;20027;-85
2024/03/07 18:28:32;;;;;;;25.85;15.15;;;7.80;99.90;;;;;;4975915;28;20026;-83
2024/03/07 18:31:03;;;;;;;24.23;14.50;;;7.80;99.90;;;;;;4967777;28;20126;-83
2024/03/07 18:33:29;;;;;;;26.02;14.80;;;7.70;99.90;;;;;;4972614;28;20023;-84
2024/03/07 18:35:56;;;;;;;25.10;15.07;;;7.70;99.90;;;;;;4992594;28;20124;-84
2024/03/07 18:38:21;;;;;;;28.27;14.98;;;8.50;99.90;;;;;;4977591;28;20034;-83
2024/03/07 18:40:48;;;;;;;26.30;15.60;;;7.70;99.90;;;;;;4978307;28;20043;-86
2024/03/07 18:43:14;;;;;;;27.02;15.50;;;7.70;99.90;;;;;;4993158;28;20027;-86
2024/03/07 18:45:44;;;;;;;28.30;16.02;;;7.70;99.90;;;;;;4983627;28;20096;-84
2024/03/07 18:48:11;;;;;;;28.23;16.10;;;7.70;99.90;;;;;;4981325;28;20026;-84
2024/03/07 18:50:47;;;;;;;27.08;15.00;;;7.70;99.90;;;;;;4993797;28;20062;-86
2024/03/07 18:53:14;;;;;;;24.67;15.07;;;7.80;99.90;;;;;;4972390;28;20030;-84
2024/03/07 18:55:42;;;;;;;28.65;15.63;;;7.70;99.90;;;;;;4978079;28;20494;-83
2024/03/07 18:58:09;;;;;;;23.38;14.57;;;7.90;99.90;;;;;;4974742;28;20045;-82
2024/03/07 19:00:38;;;;;;;27.25;15.10;;;7.70;99.90;;;;;;4965789;28;20023;-81
2024/03/07 19:03:08;;;;;;;27.00;15.32;;;7.60;99.90;;;;;;4980765;28;20029;-87
2024/03/07 19:05:42;;;;;;;27.08;15.40;;;7.60;99.90;;;;;;4978384;28;20026;-82
2024/03/07 19:10:53;;;;;;;29.20;16.10;;;7.60;99.90;;;;;;4995432;28;20030;-83
2024/03/07 19:13:19;;;;;;;29.73;16.02;;;7.50;99.90;;;;;;4985087;28;20050;-82
2024/03/07 19:15:49;;;;;;;27.40;15.50;;;7.40;99.90;;;;;;4982775;28;20037;-84
2024/03/07 19:18:16;;;;;;;25.77;15.30;;;7.40;99.90;;;;;;4994658;28;20053;-85
2024/03/07 19:20:43;;;;;;;28.73;15.90;;;7.40;99.90;;;;;;4974540;28;20495;-87
2024/03/07 19:23:12;;;;;;;30.92;16.23;;;7.60;99.90;;;;;;4971725;28;20035;-83
2024/03/07 19:25:40;;;;;;;28.77;15.93;;;7.30;99.90;;;;;;4972882;28;20045;-85
2024/03/07 19:28:15;;;;;;;27.17;16.20;;;7.30;99.90;;;;;;4979949;28;20141;-84
2024/03/07 19:30:46;;;;;;;28.88;15.77;;;7.30;99.90;;;;;;4969474;28;20117;-84
2024/03/07 19:33:14;;;;;;;26.88;16.20;;;7.40;99.90;;;;;;4971751;28;20426;-85
2024/03/07 19:35:51;;;;;;;29.27;16.73;;;7.40;99.90;;;;;;4969324;28;20058;-85
2024/03/07 19:38:17;;;;;;;29.10;16.27;;;7.30;99.90;;;;;;4977122;28;20255;-86
2024/03/07 19:40:43;;;;;;;26.52;15.90;;;7.30;99.90;;;;;;4971707;28;20121;-84
2024/03/07 19:43:09;;;;;;;29.73;15.75;;;7.20;99.90;;;;;;4979780;28;20069;-83
2024/03/07 19:45:40;;;;;;;26.00;15.75;;;7.40;99.90;;;;;;4972407;28;20027;-86
2024/03/07 19:48:09;;;;;;;29.35;16.55;;;7.20;99.90;;;;;;4975018;28;20093;-84
2024/03/07 19:50:39;;;;;;;29.80;16.92;;;7.20;99.90;;;;;;4965143;28;20038;-87
2024/03/07 19:53:13;;;;;;;27.05;16.00;;;6.90;99.90;;;;;;4979752;28;20272;-82
2024/03/07 19:55:41;;;;;;;27.23;15.80;;;7.10;99.90;;;;;;4974289;28;20372;-85
2024/03/07 19:58:10;;;;;;;29.55;17.08;;;7.20;99.90;;;;;;4971524;28;20042;-84
2024/03/07 20:00:41;;;;;;;;;;;7.10;99.90;;;;;;4975300;28;20467;-88
2024/03/07 20:03:23;;;;;;;28.85;16.33;;;7.20;99.90;;;;;;4980374;28;20037;-87
2024/03/07 20:05:49;;;;;;;30.52;16.33;;;7.10;99.90;;;;;;4981320;28;20026;-89
2024/03/07 20:08:16;;;;;;;29.02;16.85;;;7.20;99.90;;;;;;4979674;28;20054;-86
2024/03/07 20:10:42;;;;;;;28.15;16.27;;;7.10;99.90;;;;;;4973920;28;20042;-90
2024/03/07 20:13:08;;;;;;;29.63;17.05;;;7.10;99.90;;;;;;5002032;28;20023;-89
2024/03/07 20:15:34;;;;;;;30.23;16.73;;;7.10;99.90;;;;;;4968591;28;20030;-85
2024/03/07 20:17:59;;;;;;;26.70;15.93;;;7.70;99.90;;;;;;4965194;28;20595;-89
2024/03/07 20:20:25;;;;;;;29.45;16.67;;;7.10;99.90;;;;;;4967124;28;20023;-84
2024/03/07 20:22:54;;;;;;;27.35;15.45;;;7.20;99.90;;;;;;4963757;28;20034;-88
2024/03/07 20:25:20;;;;;;;26.13;16.08;;;7.10;99.90;;;;;;4976603;28;20051;-89
2024/03/07 20:27:56;;;;;;;27.08;15.68;;;7.70;99.90;;;;;;4973074;28;20029;-88
2024/03/07 20:30:23;;;;;;;25.60;15.48;;;7.20;99.90;;;;;;4971748;28;20527;-88
2024/03/07 20:32:49;;;;;;;28.33;15.75;;;7.00;99.90;;;;;;4990495;28;20186;-87
2024/03/07 20:35:19;;;;;;;31.48;17.58;;;7.10;99.90;;;;;;4966044;28;20027;-88
2024/03/07 20:37:48;;;;;;;29.23;15.75;;;7.10;99.90;;;;;;4986604;28;20113;-89
2024/03/07 20:40:20;;;;;;;29.55;17.13;;;7.00;99.90;;;;;;4967728;28;20035;-86
2024/03/07 20:42:47;;;;;;;30.15;16.30;;;7.00;99.90;;;;;;4971803;28;20046;-86
2024/03/07 20:45:14;;;;;;;30.55;16.50;;;7.00;99.90;;;;;;4969051;28;20085;-87
2024/03/07 20:47:42;;;;;;;29.67;16.83;;;6.90;99.90;;;;;;4996247;28;20072;-84
2024/03/07 20:50:09;;;;;;;32.97;17.98;;;7.10;99.90;;;;;;4999304;28;20034;-83
2024/03/07 20:52:40;;;;;;;29.85;15.65;;;6.90;99.90;;;;;;4964186;28;20023;-85
2024/03/07 20:55:07;;;;;;;29.42;16.38;;;7.30;99.90;;;;;;4973111;28;20030;-83
2024/03/07 20:57:33;;;;;;;31.35;17.42;;;6.90;99.90;;;;;;4977629;28;20026;-87
2024/03/07 20:59:58;;;;;;;29.40;16.60;;;6.90;99.90;;;;;;4973465;28;20126;-86
2024/03/07 21:02:24;;;;;;;33.38;18.05;;;6.80;99.90;;;;;;4980686;28;20046;-86
2024/03/07 21:04:50;;;;;;;32.65;17.73;;;6.80;99.90;;;;;;4991906;28;20499;-86
2024/03/07 21:07:16;;;;;;;31.73;16.77;;;6.80;99.90;;;;;;5001450;28;20057;-83
2024/03/07 21:09:42;;;;;;;32.78;17.92;;;6.80;99.90;;;;;;4995861;28;20026;-86
2024/03/07 21:12:11;;;;;;;31.00;17.15;;;6.80;99.90;;;;;;4965536;28;20050;-87
2024/03/07 21:14:37;;;;;;;33.92;16.60;;;6.70;99.90;;;;;;4978421;28;20023;-85
2024/03/07 21:17:03;;;;;;;26.60;15.75;;;6.60;99.90;;;;;;4977730;28;20081;-82
2024/03/07 21:19:32;;;;;;;28.08;16.45;;;6.70;99.90;;;;;;4998732;28;20038;-84
2024/03/07 21:21:57;;;;;;;27.15;15.50;;;6.70;99.90;;;;;;4980421;28;20030;-85
2024/03/07 21:24:23;;;;;;;28.13;15.45;;;6.60;99.90;;;;;;4962163;28;20488;-86
2024/03/07 21:26:52;;;;;;;29.83;16.10;;;6.70;99.90;;;;;;4975702;28;20038;-85
2024/03/07 21:29:18;;;;;;;27.65;14.80;;;6.60;99.90;;;;;;4983026;28;20030;-87
2024/03/07 21:31:45;;;;;;;26.70;14.55;;;6.60;99.90;;;;;;4982453;28;20506;-89
2024/03/07 21:34:10;;;;;;;23.42;14.23;;;6.60;99.90;;;;;;4968062;28;20034;-88
2024/03/07 21:36:36;;;;;;;27.45;15.30;;;7.90;99.90;;;;;;5000781;28;20073;-86
2024/03/07 21:39:02;;;;;;;27.55;14.35;;;6.90;99.90;;;;;;4986304;28;20061;-87
2024/03/07 21:41:36;;;;;;;26.50;15.30;;;7.30;99.90;;;;;;4986580;28;20030;-88
2024/03/07 21:44:02;;;;;;;27.42;15.05;;;6.70;99.90;;;;;;4986622;28;20029;-85
2024/03/07 21:46:30;;;;;;;25.30;14.88;;;6.50;99.90;;;;;;5004324;28;20414;-86
2024/03/07 21:48:57;;;;;;;28.02;14.60;;;5.10;99.90;;;;;;4986716;28;20033;-87
2024/03/07 21:51:22;;;;;;;27.33;14.57;;;6.50;99.90;;;;;;4992167;28;20031;-86
2024/03/07 21:53:48;;;;;;;29.08;15.02;;;8.10;99.90;;;;;;4968003;28;20402;-85
2024/03/07 21:56:26;;;;;;;27.17;15.35;;;6.50;99.90;;;;;;4969534;28;20027;-87
2024/03/07 21:58:51;;;;;;;28.15;14.40;;;6.50;99.90;;;;;;4969359;28;20372;-85
2024/03/07 22:01:17;;;;;;;27.67;15.10;;;6.60;99.90;;;;;;4987396;28;20034;-86
2024/03/07 22:03:44;;;;;;;24.92;14.50;;;6.60;99.90;;;;;;5004894;28;20023;-85
2024/03/07 22:06:10;;;;;;;25.73;14.40;;;6.40;99.90;;;;;;5004182;28;20371;-84
2024/03/07 22:08:36;;;;;;;24.70;14.52;;;6.40;99.90;;;;;;5002338;28;20029;-83
2024/03/07 22:11:02;;;;;;;26.02;14.60;;;8.40;99.90;;;;;;4988173;28;20031;-87
2024/03/07 22:13:28;;;;;;;24.35;13.65;;;6.40;99.90;;;;;;4966553;28;20038;-87
2024/03/07 22:15:53;;;;;;;21.80;13.20;;;6.90;99.90;;;;;;4987438;28;20030;-85
2024/03/07 22:18:20;;;;;;;23.75;13.52;;;7.40;99.90;;;;;;4987177;28;20049;-86
2024/03/07 22:20:46;;;;;;;23.95;13.23;;;6.50;99.90;;;;;;5005853;28;20026;-86
2024/03/07 22:23:12;;;;;;;24.98;13.73;;;6.40;99.90;;;;;;4986657;28;20090;-86
2024/03/07 22:25:38;;;;;;;20.90;12.38;;;6.40;99.90;;;;;;4985582;28;20030;-86
2024/03/07 22:28:04;;;;;;;26.05;13.52;;;6.50;99.90;;;;;;4973594;28;20550;-88
2024/03/07 22:30:29;;;;;;;20.70;12.10;;;6.40;99.90;;;;;;4965745;28;20081;-83
2024/03/07 22:32:55;;;;;;;20.58;12.82;;;7.40;99.90;;;;;;4973626;28;20078;-86
2024/03/07 22:35:21;;;;;;;22.30;12.68;;;7.40;99.90;;;;;;4985357;28;20054;-85
2024/03/07 22:37:53;;;;;;;21.17;12.25;;;6.40;99.90;;;;;;4986153;28;20030;-88
2024/03/07 22:40:25;;;;;;;23.15;13.02;;;7.10;99.90;;;;;;4951853;28;20042;-87
2024/03/07 22:42:51;;;;;;;21.80;12.73;;;6.80;99.90;;;;;;4984018;28;20106;-87
2024/03/07 22:45:17;;;;;;;22.40;12.57;;;6.40;99.90;;;;;;4966371;28;20058;-85
2024/03/07 22:47:50;;;;;;;23.27;12.30;;;6.50;99.90;;;;;;4967430;28;20022;-83
2024/03/07 22:50:16;;;;;;;22.30;12.43;;;6.50;99.90;;;;;;4991541;28;20030;-84
2024/03/07 22:52:43;;;;;;;20.13;12.35;;;6.60;99.90;;;;;;4999859;28;20027;-84
2024/03/07 22:55:09;;;;;;;20.33;12.35;;;6.60;99.90;;;;;;5001666;28;20422;-83
2024/03/07 22:57:35;;;;;;;23.98;12.23;;;6.60;99.90;;;;;;5001843;28;20054;-83
2024/03/07 23:00:47;;;;;;;23.20;12.48;;;6.50;99.90;;;;;;4983250;28;20038;-83
2024/03/07 23:02:57;;;;;;;22.10;12.30;;;6.50;99.90;;;;;;4992676;28;20034;-86
2024/03/07 23:05:22;;;;;;;21.42;12.50;;;7.80;99.90;;;;;;4999021;28;20031;-84
2024/03/07 23:07:48;;;;;;;20.15;11.93;;;7.80;99.90;;;;;;4985602;28;20368;-82
2024/03/07 23:10:19;;;;;;;22.85;11.30;;;6.50;99.90;;;;;;4979882;28;20072;-83
2024/03/07 23:12:49;;;;;;;21.85;11.85;;;8.40;99.90;;;;;;4970091;28;20047;-87
2024/03/07 23:15:15;;;;;;;22.50;12.00;;;6.40;99.90;;;;;;4973589;28;20042;-85
2024/03/07 23:17:43;;;;;;;22.63;12.65;;;6.40;99.90;;;;;;4965534;28;20046;-85
2024/03/07 23:20:19;;;;;;;22.20;13.02;;;6.30;99.90;;;;;;4980328;28;20039;-85
2024/03/07 23:22:48;;;;;;;21.27;12.25;;;6.30;99.90;;;;;;4976615;28;20062;-86
2024/03/07 23:25:14;;;;;;;22.63;12.77;;;6.20;99.90;;;;;;4973235;28;20031;-87
2024/03/07 23:27:44;;;;;;;22.23;12.23;;;6.80;99.90;;;;;;4971318;28;20713;-86
2024/03/07 23:30:12;;;;;;;25.95;13.00;;;6.30;99.90;;;;;;4976260;28;20031;-87
2024/03/07 23:32:38;;;;;;;22.77;12.15;;;6.30;99.90;;;;;;4973439;28;20038;-84
2024/03/07 23:35:04;;;;;;;23.00;13.13;;;7.60;99.90;;;;;;4988146;28;20137;-86
2024/03/07 23:37:30;;;;;;;20.67;11.25;;;6.30;99.90;;;;;;4991426;28;20034;-87
2024/03/07 23:39:57;;;;;;;22.30;12.52;;;6.50;99.90;;;;;;4981594;28;20042;-86
2024/03/07 23:42:23;;;;;;;20.85;11.40;;;6.30;99.90;;;;;;4983673;28;20026;-87
2024/03/07 23:44:48;;;;;;;23.75;11.70;;;7.90;99.90;;;;;;4990145;28;20101;-86
2024/03/07 23:47:14;;;;;;;22.73;11.90;;;6.70;99.90;;;;;;4980894;28;20606;-87
2024/03/07 23:49:40;;;;;;;22.70;12.48;;;6.60;99.90;;;;;;4983555;28;20057;-88
2024/03/07 23:52:05;;;;;;;23.83;12.65;;;6.40;99.90;;;;;;4978645;28;20202;-85
2024/03/07 23:54:31;;;;;;;23.10;12.38;;;6.30;99.90;;;;;;4978304;28;20364;-87
2024/03/07 23:56:57;;;;;;;21.77;11.90;;;7.10;99.90;;;;;;4982182;28;20062;-85
2024/03/07 23:59:24;;;;;;;23.70;12.75;;;6.10;99.90;;;;;;4976777;28;20069;-86
